Time;durP1;ratioP1;P1;durP2;ratioP2;P2;SDS_P1;SDS_P2;PMS_P1;PMS_P2;Temp;Humidity;BMP_temperature;BMP_pressure;BME280_temperature;BME280_humidity;BME280_pressure;Samples;Min_cycle;Max_cycle;Signal;HPM_P1;HPM_P2
2022/08/12 00:43:11;;;;;;;;;;;;;;;;;;1043467;28;19913;-74
2022/08/12 00:43:42;;;;;;;;;;;;;;;;;;1041742;28;19913;-74
2022/08/12 00:44:11;;;;;;;;;;;;;;;;;;1040532;28;20276;-74
2022/08/12 00:44:42;;;;;;;;;;;;;;;;;;1040122;28;19917;-74
2022/08/12 00:45:12;;;;;;;;;;;;;;;;;;1040253;28;19924;-74
2022/08/12 00:46:31;;;;;;;;;;;;;;;;;;1040226;28;19917;-74
2022/08/12 00:47:02;;;;;;;;;;;;;;;;;;1040641;28;20149;-74
2022/08/12 00:47:32;;;;;;;;;;;;;;;;;;1041704;28;20393;-74
2022/08/12 00:48:02;;;;;;;;;;;;;;;;;;1041429;28;19917;-74
2022/08/12 00:48:32;;;;;;;;;;;;;;;;;;1040925;28;19909;-74
2022/08/12 00:49:03;;;;;;;;;;;;;;;;;;1044250;28;19915;-74
2022/08/12 00:49:33;;;;;;;;;;;;;;;;;;1044227;28;20376;-74
2022/08/12 00:50:04;;;;;;;;;;;;;;;;;;1041771;28;19994;-76
2022/08/12 00:50:35;;;;;;;;;;;;;;;;;;1035956;28;19949;-74
2022/08/12 00:51:05;;;;;;;;;;;;;;;;;;1036140;28;19916;-74
2022/08/12 00:52:24;;;;;;;;;;;;;;;;;;1040490;28;19909;-74
2022/08/12 00:52:54;;;;;;;;;;;;;;;;;;1040023;28;19913;-74
2022/08/12 00:53:25;;;;;;;;;;;;;;;;;;1040127;28;19917;-74
2022/08/12 00:53:55;;;;;;;;;;;;;;;;;;1040106;28;20043;-74
2022/08/12 00:54:25;;;;;;;;;;;;;;;;;;1040041;28;19910;-74
2022/08/12 00:54:56;;;;;;;;;;;;;;;;;;1040182;28;19913;-74
2022/08/12 00:55:26;;;;;;;;;;;;;;;;;;1040146;28;19909;-74
2022/08/12 00:55:57;;;;;;;;;;;;;;;;;;1040187;28;19984;-74
2022/08/12 00:56:27;;;;;;;;;;;;;;;;;;1040402;28;19913;-74
2022/08/12 00:56:57;;;;;;;;;;;;;;;;;;1040675;28;19931;-74
2022/08/12 00:57:27;;;;;;;;;;;;;;;;;;1040067;28;19913;-74
2022/08/12 00:57:58;;;;;;;;;;;;;;;;;;1040289;28;19917;-74
2022/08/12 00:58:28;;;;;;;;;;;;;;;;;;1040139;28;20358;-74
2022/08/12 00:58:58;;;;;;;;;;;;;;;;;;1040172;28;19913;-74
2022/08/12 00:59:28;;;;;;;;;;;;;;;;;;1040398;28;20332;-74
2022/08/12 00:59:59;;;;;;;;;;;;;;;;;;1040543;28;19913;-74
2022/08/12 01:00:31;;;;;;;;;;;;;;;;;;1040307;28;19920;-74
2022/08/12 01:01:01;;;;;;;;;;;;;;;;;;1040538;28;19913;-74
2022/08/12 01:01:32;;;;;;;;;;;;;;;;;;1040387;28;20443;-74
2022/08/12 01:02:02;;;;;;;;;;;;;;;;;;1040196;28;19988;-74
2022/08/12 01:02:32;;;;;;;;;;;;;;;;;;1041017;28;20356;-74
2022/08/12 01:03:03;;;;;;;;;;;;;;;;;;1044384;28;20315;-74
2022/08/12 01:11:27;;;;;;;;;;;;;;;;;;1044146;28;19916;-74
2022/08/12 01:11:43;;;;;;;;;;;;;;;;;;1044436;28;19909;-74
2022/08/12 01:12:13;;;;;;;;;;;;;;;;;;1044579;28;19944;-74
2022/08/12 01:12:43;;;;;;;;;;;;;;;;;;1044443;28;20284;-74
2022/08/12 01:13:14;;;;;;;;;;;;;;;;;;1040868;28;19913;-74
2022/08/12 01:13:45;;;;;;;;;;;;;;;;;;1040113;28;20439;-74
2022/08/12 01:14:15;;;;;;;;;;;;;;;;;;1040143;28;19910;-74
2022/08/12 01:14:45;;;;;;;;;;;;;;;;;;1040086;28;19952;-74
2022/08/12 01:15:16;;;;;;;;;;;;;;;;;;1040422;28;19909;-74
2022/08/12 01:15:46;;;;;;;;;;;;;;;;;;1040478;28;20392;-74
2022/08/12 01:16:16;;;;;;;;;;;;;;;;;;1040031;28;19909;-74
2022/08/12 01:16:47;;;;;;;;;;;;;;;;;;1040092;28;19940;-74
2022/08/12 01:17:18;;;;;;;;;;;;;;;;;;1040248;28;19916;-74
2022/08/12 01:17:49;;;;;;;;;;;;;;;;;;1040032;28;19916;-75
2022/08/12 01:18:19;;;;;;;;;;;;;;;;;;1040127;28;19909;-74
2022/08/12 01:18:50;;;;;;;;;;;;;;;;;;1039979;28;19917;-74
2022/08/12 01:19:20;;;;;;;;;;;;;;;;;;1040185;28;19909;-74
2022/08/12 01:19:51;;;;;;;;;;;;;;;;;;1040014;28;19921;-74
2022/08/12 01:20:21;;;;;;;;;;;;;;;;;;1040654;28;19913;-75
2022/08/12 01:20:51;;;;;;;;;;;;;;;;;;1040645;28;19925;-74
2022/08/12 01:21:22;;;;;;;;;;;;;;;;;;1044488;28;19909;-74
2022/08/12 01:21:54;;;;;;;;;;;;;;;;;;1044531;28;19936;-74
2022/08/12 01:22:24;;;;;;;;;;;;;;;;;;1044177;28;19916;-76
2022/08/12 01:22:55;;;;;;;;;;;;;;;;;;1044269;28;19913;-76
2022/08/12 01:23:25;;;;;;;;;;;;;;;;;;1044116;28;20777;-77
2022/08/12 01:23:55;;;;;;;;;;;;;;;;;;1044199;28;19948;-77
2022/08/12 01:24:25;;;;;;;;;;;;;;;;;;1044045;28;20319;-77
2022/08/12 01:24:56;;;;;;;;;;;;;;;;;;1040077;28;19913;-77
2022/08/12 01:25:26;;;;;;;;;;;;;;;;;;1035915;28;19956;-76
2022/08/12 01:25:57;;;;;;;;;;;;;;;;;;1036077;28;19921;-74
2022/08/12 01:26:27;;;;;;;;;;;;;;;;;;1039900;28;20071;-76
2022/08/12 01:26:57;;;;;;;;;;;;;;;;;;1044146;28;19913;-76
2022/08/12 01:27:27;;;;;;;;;;;;;;;;;;1044078;28;19909;-76
2022/08/12 01:27:59;;;;;;;;;;;;;;;;;;1044262;28;19920;-76
2022/08/12 01:28:29;;;;;;;;;;;;;;;;;;1044435;28;19912;-76
2022/08/12 01:29:02;;;;;;;;;;;;;;;;;;1044501;28;19916;-74
2022/08/12 01:29:35;;;;;;;;;;;;;;;;;;1044485;28;19983;-74
2022/08/12 01:30:06;;;;;;;;;;;;;;;;;;1044669;28;19915;-76
2022/08/12 01:30:36;;;;;;;;;;;;;;;;;;1044380;28;20418;-76
2022/08/12 01:31:06;;;;;;;;;;;;;;;;;;1044484;28;19912;-77
2022/08/12 01:31:37;;;;;;;;;;;;;;;;;;1041527;28;19921;-76
2022/08/12 01:32:08;;;;;;;;;;;;;;;;;;1038454;28;19924;-77
2022/08/12 01:32:38;;;;;;;;;;;;;;;;;;1038965;28;19910;-77
2022/08/12 01:33:10;;;;;;;;;;;;;;;;;;1036900;28;19986;-74
2022/08/12 01:33:41;;;;;;;;;;;;;;;;;;1037650;28;20019;-74
2022/08/12 01:34:11;;;;;;;;;;;;;;;;;;1037119;28;20443;-74
2022/08/12 01:34:41;;;;;;;;;;;;;;;;;;1037131;28;19914;-74
2022/08/12 01:35:12;;;;;;;;;;;;;;;;;;1038874;28;20589;-77
2022/08/12 01:35:43;;;;;;;;;;;;;;;;;;1043401;28;19917;-77
2022/08/12 01:36:13;;;;;;;;;;;;;;;;;;1045630;28;20010;-77
2022/08/12 01:36:44;;;;;;;;;;;;;;;;;;1045486;28;19908;-76
2022/08/12 01:37:15;;;;;;;;;;;;;;;;;;1038843;28;19918;-77
2022/08/12 01:37:45;;;;;;;;;;;;;;;;;;1039167;28;20780;-77
2022/08/12 01:38:15;;;;;;;;;;;;;;;;;;1039185;28;19948;-77
2022/08/12 01:38:46;;;;;;;;;;;;;;;;;;1039952;28;20456;-76
2022/08/12 01:39:17;;;;;;;;;;;;;;;;;;1037987;28;19909;-76
2022/08/12 01:39:47;;;;;;;;;;;;;;;;;;1036138;28;19914;-77
2022/08/12 01:40:17;;;;;;;;;;;;;;;;;;1036201;28;19910;-77
2022/08/12 01:40:48;;;;;;;;;;;;;;;;;;1037509;28;20495;-77
2022/08/12 01:41:18;;;;;;;;;;;;;;;;;;1040352;28;19909;-74
2022/08/12 01:41:48;;;;;;;;;;;;;;;;;;1039911;28;20000;-76
2022/08/12 01:42:18;;;;;;;;;;;;;;;;;;1040062;28;19960;-76
2022/08/12 01:42:49;;;;;;;;;;;;;;;;;;1038859;28;19915;-76
2022/08/12 01:43:20;;;;;;;;;;;;;;;;;;1038733;28;20137;-76
2022/08/12 01:43:50;;;;;;;;;;;;;;;;;;1039871;28;19932;-76
2022/08/12 01:44:21;;;;;;;;;;;;;;;;;;1037571;28;20405;-77
2022/08/12 01:44:52;;;;;;;;;;;;;;;;;;1039334;28;19913;-76
2022/08/12 01:45:23;;;;;;;;;;;;;;;;;;1038321;28;19921;-76
2022/08/12 01:45:54;;;;;;;;;;;;;;;;;;1040222;28;20412;-76
2022/08/12 01:46:24;;;;;;;;;;;;;;;;;;1037089;28;20292;-76
2022/08/12 01:46:54;;;;;;;;;;;;;;;;;;1036086;28;19913;-76
2022/08/12 01:47:24;;;;;;;;;;;;;;;;;;1035822;28;20008;-76
2022/08/12 01:47:55;;;;;;;;;;;;;;;;;;1036535;28;19913;-76
2022/08/12 01:48:25;;;;;;;;;;;;;;;;;;1039069;28;19956;-76
2022/08/12 01:48:56;;;;;;;;;;;;;;;;;;1039926;28;20270;-76
2022/08/12 01:49:26;;;;;;;;;;;;;;;;;;1039084;28;20004;-77
2022/08/12 01:49:56;;;;;;;;;;;;;;;;;;1040759;28;19913;-76
2022/08/12 01:50:26;;;;;;;;;;;;;;;;;;1037030;28;20350;-76
2022/08/12 01:50:57;;;;;;;;;;;;;;;;;;1037224;28;19960;-76
2022/08/12 01:51:28;;;;;;;;;;;;;;;;;;1039113;28;19924;-76
2022/08/12 01:52:01;;;;;;;;;;;;;;;;;;1040912;28;19967;-74
2022/08/12 01:52:31;;;;;;;;;;;;;;;;;;1036990;28;19922;-76
2022/08/12 01:53:02;;;;;;;;;;;;;;;;;;1033621;28;19918;-76
2022/08/12 01:53:32;;;;;;;;;;;;;;;;;;1036790;28;20008;-76
2022/08/12 01:54:03;;;;;;;;;;;;;;;;;;1036685;28;19910;-76
2022/08/12 01:54:37;;;;;;;;;;;;;;;;;;1039856;28;20377;-76
2022/08/12 01:55:07;;;;;;;;;;;;;;;;;;1039561;28;19909;-77
2022/08/12 01:55:38;;;;;;;;;;;;;;;;;;1037114;28;20306;-76
2022/08/12 01:56:09;;;;;;;;;;;;;;;;;;1041546;28;19912;-77
2022/08/12 01:56:40;;;;;;;;;;;;;;;;;;1037026;28;20412;-76
2022/08/12 01:57:11;;;;;;;;;;;;;;;;;;1037510;28;20316;-77
2022/08/12 01:57:43;;;;;;;;;;;;;;;;;;1041057;28;20003;-76
2022/08/12 01:58:13;;;;;;;;;;;;;;;;;;1040639;28;20000;-75
2022/08/12 01:59:57;;;;;;;;;;;;;;;;;;1038578;28;19922;-77
2022/08/12 02:00:30;;;;;;;;;;;;;;;;;;1039966;28;19960;-75
2022/08/12 02:01:00;;;;;;;;;;;;;;;;;;1040736;28;19963;-76
2022/08/12 02:01:33;;;;;;;;;;;;;;;;;;1039995;28;20494;-76
2022/08/12 02:02:03;;;;;;;;;;;;;;;;;;1039595;28;20015;-76
2022/08/12 02:02:34;;;;;;;;;;;;;;;;;;1039273;28;19917;-76
2022/08/12 02:03:05;;;;;;;;;;;;;;;;;;1039868;28;19916;-76
2022/08/12 02:11:41;;;;;;;;;;;;;;;;;;1041180;28;19909;-76
2022/08/12 02:12:12;;;;;;;;;;;;;;;;;;1040922;28;20353;-76
2022/08/12 02:12:42;;;;;;;;;;;;;;;;;;1040574;28;20014;-76
2022/08/12 02:13:13;;;;;;;;;;;;;;;;;;1040608;28;20305;-76
2022/08/12 02:13:43;;;;;;;;;;;;;;;;;;1034999;28;20012;-76
2022/08/12 02:14:13;;;;;;;;;;;;;;;;;;1035166;28;19909;-76
2022/08/12 02:14:43;;;;;;;;;;;;;;;;;;1033366;28;19918;-76
2022/08/12 02:15:16;;;;;;;;;;;;;;;;;;1037162;28;19967;-76
2022/08/12 02:15:47;;;;;;;;;;;;;;;;;;1041294;28;19909;-76
2022/08/12 02:16:17;;;;;;;;;;;;;;;;;;1039116;28;20332;-76
2022/08/12 02:16:47;;;;;;;;;;;;;;;;;;1038935;28;19920;-76
2022/08/12 02:17:17;;;;;;;;;;;;;;;;;;1037825;28;19921;-76
2022/08/12 02:17:48;;;;;;;;;;;;;;;;;;1035201;28;19948;-76
2022/08/12 02:18:18;;;;;;;;;;;;;;;;;;1035983;28;19914;-76
2022/08/12 02:18:48;;;;;;;;;;;;;;;;;;1040760;28;19909;-76
2022/08/12 02:19:19;;;;;;;;;;;;;;;;;;1040040;28;20312;-76
2022/08/12 02:19:49;;;;;;;;;;;;;;;;;;1041185;28;19920;-75
2022/08/12 02:20:22;;;;;;;;;;;;;;;;;;1038324;28;20036;-76
2022/08/12 02:20:52;;;;;;;;;;;;;;;;;;1036718;28;19925;-76
2022/08/12 02:21:23;;;;;;;;;;;;;;;;;;1039854;28;19925;-76
2022/08/12 02:21:53;;;;;;;;;;;;;;;;;;1040834;28;20071;-76
2022/08/12 02:22:25;;;;;;;;;;;;;;;;;;1040155;28;19918;-76
2022/08/12 02:22:56;;;;;;;;;;;;;;;;;;1045023;28;20330;-76
2022/08/12 02:23:26;;;;;;;;;;;;;;;;;;1040759;28;19917;-76
2022/08/12 02:23:57;;;;;;;;;;;;;;;;;;1040885;28;19920;-76
2022/08/12 02:24:27;;;;;;;;;;;;;;;;;;1040050;28;19917;-76
2022/08/12 02:24:57;;;;;;;;;;;;;;;;;;1036944;28;19960;-76
2022/08/12 02:25:28;;;;;;;;;;;;;;;;;;1039274;28;20321;-76
2022/08/12 02:25:58;;;;;;;;;;;;;;;;;;1040422;28;20020;-76
2022/08/12 02:26:29;;;;;;;;;;;;;;;;;;1037078;28;20354;-76
2022/08/12 02:26:59;;;;;;;;;;;;;;;;;;1038432;28;19921;-76
2022/08/12 02:27:30;;;;;;;;;;;;;;;;;;1038250;28;20288;-76
2022/08/12 02:28:01;;;;;;;;;;;;;;;;;;1036755;28;20396;-76
2022/08/12 02:28:31;;;;;;;;;;;;;;;;;;1039897;28;19972;-76
2022/08/12 02:29:01;;;;;;;;;;;;;;;;;;1040385;28;19977;-76
2022/08/12 02:29:32;;;;;;;;;;;;;;;;;;1040025;28;19917;-76
2022/08/12 02:30:02;;;;;;;;;;;;;;;;;;1036256;28;19918;-76
2022/08/12 02:30:32;;;;;;;;;;;;;;;;;;1035696;28;19914;-76
2022/08/12 02:31:03;;;;;;;;;;;;;;;;;;1034825;28;19921;-77
2022/08/12 02:31:33;;;;;;;;;;;;;;;;;;1039608;28;20428;-76
2022/08/12 02:32:04;;;;;;;;;;;;;;;;;;1040355;28;19910;-76
2022/08/12 02:32:34;;;;;;;;;;;;;;;;;;1038628;28;20393;-76
2022/08/12 02:33:04;;;;;;;;;;;;;;;;;;1037848;28;19975;-76
2022/08/12 02:33:36;;;;;;;;;;;;;;;;;;1035860;28;19909;-76
2022/08/12 02:34:06;;;;;;;;;;;;;;;;;;1040028;28;20061;-76
2022/08/12 02:34:36;;;;;;;;;;;;;;;;;;1036744;28;19910;-76
2022/08/12 02:35:07;;;;;;;;;;;;;;;;;;1033196;28;20024;-76
2022/08/12 02:35:38;;;;;;;;;;;;;;;;;;1039754;28;19913;-76
2022/08/12 02:36:08;;;;;;;;;;;;;;;;;;1038890;28;19913;-76
2022/08/12 02:36:38;;;;;;;;;;;;;;;;;;1040884;28;20388;-76
2022/08/12 02:37:09;;;;;;;;;;;;;;;;;;1040164;28;19975;-76
2022/08/12 02:37:39;;;;;;;;;;;;;;;;;;1041128;28;20356;-76
2022/08/12 02:38:10;;;;;;;;;;;;;;;;;;1043195;28;19909;-76
2022/08/12 02:38:40;;;;;;;;;;;;;;;;;;1040322;28;19913;-76
2022/08/12 02:39:10;;;;;;;;;;;;;;;;;;1040408;28;19961;-76
2022/08/12 02:39:40;;;;;;;;;;;;;;;;;;1041424;28;19909;-76
2022/08/12 02:40:11;;;;;;;;;;;;;;;;;;1040447;28;19909;-76
2022/08/12 02:40:44;;;;;;;;;;;;;;;;;;1038637;28;19920;-76
2022/08/12 02:41:15;;;;;;;;;;;;;;;;;;1038034;28;19913;-76
2022/08/12 02:41:46;;;;;;;;;;;;;;;;;;1040964;28;19913;-76
2022/08/12 02:42:16;;;;;;;;;;;;;;;;;;1039978;28;19909;-76
2022/08/12 02:42:46;;;;;;;;;;;;;;;;;;1040857;28;20475;-76
2022/08/12 02:43:17;;;;;;;;;;;;;;;;;;1042030;28;19910;-76
2022/08/12 02:43:48;;;;;;;;;;;;;;;;;;1044849;28;20007;-76
2022/08/12 02:44:18;;;;;;;;;;;;;;;;;;1041886;28;20429;-76
2022/08/12 02:44:48;;;;;;;;;;;;;;;;;;1042634;28;19909;-76
2022/08/12 02:45:19;;;;;;;;;;;;;;;;;;1038301;28;19927;-76
2022/08/12 02:45:50;;;;;;;;;;;;;;;;;;1036668;28;19916;-76
2022/08/12 02:46:20;;;;;;;;;;;;;;;;;;1037249;28;20082;-76
2022/08/12 02:46:50;;;;;;;;;;;;;;;;;;1036732;28;19964;-76
2022/08/12 02:47:21;;;;;;;;;;;;;;;;;;1036034;28;19925;-76
2022/08/12 02:47:51;;;;;;;;;;;;;;;;;;1040757;28;19947;-76
2022/08/12 02:48:21;;;;;;;;;;;;;;;;;;1040060;28;20034;-76
2022/08/12 02:48:52;;;;;;;;;;;;;;;;;;1043912;28;19916;-76
2022/08/12 02:49:22;;;;;;;;;;;;;;;;;;1037904;28;20387;-76
2022/08/12 02:49:54;;;;;;;;;;;;;;;;;;1036706;28;19913;-76
2022/08/12 02:50:26;;;;;;;;;;;;;;;;;;1040479;28;19917;-76
2022/08/12 02:50:57;;;;;;;;;;;;;;;;;;1040475;28;20417;-76
2022/08/12 02:51:27;;;;;;;;;;;;;;;;;;1037270;28;19957;-76
2022/08/12 02:51:58;;;;;;;;;;;;;;;;;;1037152;28;19913;-76
2022/08/12 02:52:28;;;;;;;;;;;;;;;;;;1040343;28;20051;-76
2022/08/12 02:52:58;;;;;;;;;;;;;;;;;;1041168;28;19920;-76
2022/08/12 02:53:28;;;;;;;;;;;;;;;;;;1036158;28;20377;-77
2022/08/12 02:53:59;;;;;;;;;;;;;;;;;;1036348;28;19914;-77
2022/08/12 02:54:29;;;;;;;;;;;;;;;;;;1038000;28;19917;-76
2022/08/12 02:55:00;;;;;;;;;;;;;;;;;;1040098;28;19925;-76
2022/08/12 02:55:30;;;;;;;;;;;;;;;;;;1040486;28;20051;-76
2022/08/12 02:56:04;;;;;;;;;;;;;;;;;;1037963;28;20431;-76
2022/08/12 02:56:36;;;;;;;;;;;;;;;;;;1036754;28;19913;-76
2022/08/12 02:57:06;;;;;;;;;;;;;;;;;;1038163;28;19915;-76
2022/08/12 02:57:38;;;;;;;;;;;;;;;;;;1040794;28;19909;-76
2022/08/12 02:58:08;;;;;;;;;;;;;;;;;;1041238;28;20361;-76
2022/08/12 02:58:39;;;;;;;;;;;;;;;;;;1040822;28;19909;-76
2022/08/12 02:59:10;;;;;;;;;;;;;;;;;;1040822;28;19909;-76
2022/08/12 02:59:42;;;;;;;;;;;;;;;;;;1040422;28;20262;-76
2022/08/12 03:00:12;;;;;;;;;;;;;;;;;;1040897;28;19951;-76
2022/08/12 03:00:42;;;;;;;;;;;;;;;;;;1039228;28;20351;-76
2022/08/12 03:01:13;;;;;;;;;;;;;;;;;;1036731;28;19914;-76
2022/08/12 03:01:43;;;;;;;;;;;;;;;;;;1036399;28;19909;-76
2022/08/12 03:02:13;;;;;;;;;;;;;;;;;;1036668;28;19909;-76
2022/08/12 03:02:43;;;;;;;;;;;;;;;;;;1038191;28;19925;-76
2022/08/12 03:03:14;;;;;;;;;;;;;;;;;;1040738;28;19932;-76
2022/08/12 03:03:44;;;;;;;;;;;;;;;;;;1040390;28;20448;-76
2022/08/12 03:04:14;;;;;;;;;;;;;;;;;;1038971;28;20335;-76
2022/08/12 03:04:45;;;;;;;;;;;;;;;;;;1038784;28;19913;-76
2022/08/12 03:05:15;;;;;;;;;;;;;;;;;;1038139;28;20021;-76
2022/08/12 03:05:46;;;;;;;;;;;;;;;;;;1040814;28;19963;-76
2022/08/12 03:06:16;;;;;;;;;;;;;;;;;;1038743;28;20374;-76
2022/08/12 03:06:46;;;;;;;;;;;;;;;;;;1036222;28;19920;-76
2022/08/12 03:07:17;;;;;;;;;;;;;;;;;;1039378;28;20012;-76
2022/08/12 03:07:47;;;;;;;;;;;;;;;;;;1038454;28;19962;-76
2022/08/12 03:08:17;;;;;;;;;;;;;;;;;;1039148;28;19915;-76
2022/08/12 03:08:47;;;;;;;;;;;;;;;;;;1039891;28;19913;-76
2022/08/12 03:09:18;;;;;;;;;;;;;;;;;;1039350;28;19921;-76
2022/08/12 03:09:48;;;;;;;;;;;;;;;;;;1038236;28;19917;-76
2022/08/12 03:10:19;;;;;;;;;;;;;;;;;;1040801;28;19971;-76
2022/08/12 03:10:49;;;;;;;;;;;;;;;;;;1043669;28;20399;-76
2022/08/12 03:11:20;;;;;;;;;;;;;;;;;;1040105;28;19927;-76
2022/08/12 03:11:50;;;;;;;;;;;;;;;;;;1043211;28;19975;-76
2022/08/12 03:12:20;;;;;;;;;;;;;;;;;;1038664;28;19951;-76
2022/08/12 03:12:56;;;;;;;;;;;;;;;;;;1040318;28;20285;-76
2022/08/12 03:13:26;;;;;;;;;;;;;;;;;;1039606;28;20297;-76
2022/08/12 03:13:57;;;;;;;;;;;;;;;;;;1037334;28;19917;-76
2022/08/12 03:14:27;;;;;;;;;;;;;;;;;;1040247;28;19917;-76
2022/08/12 03:14:57;;;;;;;;;;;;;;;;;;1040360;28;19921;-76
2022/08/12 03:15:29;;;;;;;;;;;;;;;;;;1039573;28;20011;-76
2022/08/12 03:15:59;;;;;;;;;;;;;;;;;;1039384;28;19923;-76
2022/08/12 03:16:30;;;;;;;;;;;;;;;;;;1040030;28;19917;-76
2022/08/12 03:17:02;;;;;;;;;;;;;;;;;;1039066;28;19929;-76
2022/08/12 03:17:33;;;;;;;;;;;;;;;;;;1039216;28;19956;-76
2022/08/12 03:18:03;;;;;;;;;;;;;;;;;;1043894;28;19915;-76
2022/08/12 03:18:34;;;;;;;;;;;;;;;;;;1044568;28;20007;-76
2022/08/12 03:19:05;;;;;;;;;;;;;;;;;;1039502;28;19960;-76
2022/08/12 03:19:35;;;;;;;;;;;;;;;;;;1040228;28;19960;-76
2022/08/12 03:20:05;;;;;;;;;;;;;;;;;;1040038;28;20011;-76
2022/08/12 03:20:39;;;;;;;;;;;;;;;;;;1039380;28;19940;-76
2022/08/12 03:21:12;;;;;;;;;;;;;;;;;;1037457;28;19909;-76
2022/08/12 03:21:42;;;;;;;;;;;;;;;;;;1042567;28;20281;-76
2022/08/12 03:22:13;;;;;;;;;;;;;;;;;;1042325;28;20011;-76
2022/08/12 03:22:43;;;;;;;;;;;;;;;;;;1039151;28;19920;-76
2022/08/12 03:23:14;;;;;;;;;;;;;;;;;;1037198;28;19909;-76
2022/08/12 03:23:44;;;;;;;;;;;;;;;;;;1040397;28;20494;-76
2022/08/12 03:24:15;;;;;;;;;;;;;;;;;;1039611;28;20385;-76
2022/08/12 03:24:45;;;;;;;;;;;;;;;;;;1040307;28;19913;-76
2022/08/12 03:25:15;;;;;;;;;;;;;;;;;;1039619;28;19909;-76
2022/08/12 03:25:46;;;;;;;;;;;;;;;;;;1040430;28;20347;-76
2022/08/12 03:26:18;;;;;;;;;;;;;;;;;;1039897;28;19910;-76
2022/08/12 03:26:48;;;;;;;;;;;;;;;;;;1038790;28;20015;-77
2022/08/12 03:27:19;;;;;;;;;;;;;;;;;;1038141;28;19924;-76
2022/08/12 03:27:50;;;;;;;;;;;;;;;;;;1038140;28;20008;-76
2022/08/12 03:29:09;;;;;;;;;;;;;;;;;;1037066;28;20004;-76
2022/08/12 03:29:40;;;;;;;;;;;;;;;;;;1036654;28;20281;-76
2022/08/12 03:30:10;;;;;;;;;;;;;;;;;;1038044;28;19917;-76
2022/08/12 03:30:42;;;;;;;;;;;;;;;;;;1038939;28;19960;-77
2022/08/12 03:31:12;;;;;;;;;;;;;;;;;;1036328;28;19909;-76
2022/08/12 03:31:42;;;;;;;;;;;;;;;;;;1038722;28;19960;-76
2022/08/12 03:32:13;;;;;;;;;;;;;;;;;;1040811;28;19909;-76
2022/08/12 03:32:45;;;;;;;;;;;;;;;;;;1040394;28;20024;-76
2022/08/12 03:33:15;;;;;;;;;;;;;;;;;;1040527;28;19909;-77
2022/08/12 03:33:46;;;;;;;;;;;;;;;;;;1040441;28;19909;-76
2022/08/12 03:34:22;;;;;;;;;;;;;;;;;;1040785;28;19913;-76
2022/08/12 03:34:53;;;;;;;;;;;;;;;;;;1040346;28;20446;-76
2022/08/12 03:35:26;;;;;;;;;;;;;;;;;;1040600;28;19909;-76
2022/08/12 03:35:57;;;;;;;;;;;;;;;;;;1040401;28;19913;-76
2022/08/12 03:36:27;;;;;;;;;;;;;;;;;;1040538;28;20266;-76
2022/08/12 03:36:57;;;;;;;;;;;;;;;;;;1039291;28;19913;-76
2022/08/12 03:37:29;;;;;;;;;;;;;;;;;;1038828;28;19909;-76
2022/08/12 03:37:59;;;;;;;;;;;;;;;;;;1036825;28;20008;-76
2022/08/12 03:38:29;;;;;;;;;;;;;;;;;;1036747;28;19910;-76
2022/08/12 03:39:48;;;;;;;;;;;;;;;;;;1040735;28;20381;-76
2022/08/12 03:42:01;;;;;;;;;;;;;;;;;;1036940;28;20008;-76
2022/08/12 03:42:32;;;;;;;;;;;;;;;;;;1036704;28;19909;-76
2022/08/12 04:00:41;;;;;;;;;;;;;;;;;;1032398;28;19910;-76
2022/08/12 04:01:11;;;;;;;;;;;;;;;;;;1033523;28;19910;-76
2022/08/12 04:01:42;;;;;;;;;;;;;;;;;;1034084;28;19913;-76
2022/08/12 04:02:13;;;;;;;;;;;;;;;;;;1034884;28;19917;-76
2022/08/12 04:02:43;;;;;;;;;;;;;;;;;;1032477;28;19916;-76
2022/08/12 04:04:02;;;;;;;;;;;;;;;;;;1036188;28;19909;-76
2022/08/12 04:04:33;;;;;;;;;;;;;;;;;;1036956;28;19944;-77
2022/08/12 04:05:06;;;;;;;;;;;;;;;;;;1039052;28;19909;-76
2022/08/12 04:05:37;;;;;;;;;;;;;;;;;;1035868;28;20286;-76
2022/08/12 04:06:07;;;;;;;;;;;;;;;;;;1035995;28;20012;-76
2022/08/12 04:06:37;;;;;;;;;;;;;;;;;;1032141;28;19910;-76
2022/08/12 04:07:07;;;;;;;;;;;;;;;;;;1032493;28;20358;-76
2022/08/12 04:07:38;;;;;;;;;;;;;;;;;;1035947;28;19972;-76
2022/08/12 04:08:09;;;;;;;;;;;;;;;;;;1035100;28;19918;-76
2022/08/12 04:08:39;;;;;;;;;;;;;;;;;;1036158;28;20319;-77
2022/08/12 04:09:09;;;;;;;;;;;;;;;;;;1035476;28;20020;-77
2022/08/12 04:09:40;;;;;;;;;;;;;;;;;;1034183;28;19964;-77
2022/08/12 04:10:11;;;;;;;;;;;;;;;;;;1033011;28;19916;-77
2022/08/12 04:13:18;;;;;;;;;;;;;;;;;;1035821;28;19913;-77
2022/08/12 04:13:49;;;;;;;;;;;;;;;;;;1033571;28;20790;-77
2022/08/12 04:14:19;;;;;;;;;;;;;;;;;;1030007;28;21318;-77
2022/08/12 04:14:50;;;;;;;;;;;;;;;;;;1031188;28;20416;-77
2022/08/12 04:15:23;;;;;;;;;;;;;;;;;;1031622;28;19922;-77
2022/08/12 04:15:54;;;;;;;;;;;;;;;;;;1036023;28;20439;-77
2022/08/12 04:16:24;;;;;;;;;;;;;;;;;;1033059;28;19987;-77
2022/08/12 04:16:54;;;;;;;;;;;;;;;;;;1031593;28;19918;-78
2022/08/12 04:17:27;;;;;;;;;;;;;;;;;;1031179;28;19918;-77
2022/08/12 04:17:59;;;;;;;;;;;;;;;;;;1032680;28;19918;-77
2022/08/12 04:18:29;;;;;;;;;;;;;;;;;;1035744;28;19918;-78
2022/08/12 04:19:00;;;;;;;;;;;;;;;;;;1035653;28;20388;-77
2022/08/12 04:19:30;;;;;;;;;;;;;;;;;;1035648;28;20051;-77
2022/08/12 04:20:00;;;;;;;;;;;;;;;;;;1039770;28;19917;-77
2022/08/12 04:20:31;;;;;;;;;;;;;;;;;;1043098;28;19958;-78
2022/08/12 04:21:01;;;;;;;;;;;;;;;;;;1039860;28;19963;-78
2022/08/12 04:21:35;;;;;;;;;;;;;;;;;;1039772;28;20008;-78
2022/08/12 04:22:05;;;;;;;;;;;;;;;;;;1035508;28;19910;-78
2022/08/12 04:22:35;;;;;;;;;;;;;;;;;;1035723;28;20280;-78
2022/08/12 04:23:07;;;;;;;;;;;;;;;;;;1034955;28;19918;-79
2022/08/12 04:23:37;;;;;;;;;;;;;;;;;;1035718;28;19960;-78
2022/08/12 04:24:08;;;;;;;;;;;;;;;;;;1035455;28;20007;-79
2022/08/12 04:24:38;;;;;;;;;;;;;;;;;;1035280;28;20289;-77
2022/08/12 04:25:09;;;;;;;;;;;;;;;;;;1031478;28;19924;-77
2022/08/12 04:25:39;;;;;;;;;;;;;;;;;;1032085;28;19916;-77
2022/08/12 04:26:09;;;;;;;;;;;;;;;;;;1031419;28;19909;-78
2022/08/12 04:26:40;;;;;;;;;;;;;;;;;;1030852;28;19945;-77
2022/08/12 04:27:10;;;;;;;;;;;;;;;;;;1035144;28;19914;-78
2022/08/12 04:27:40;;;;;;;;;;;;;;;;;;1035634;28;19917;-78
2022/08/12 04:28:11;;;;;;;;;;;;;;;;;;1035780;28;19945;-78
2022/08/12 04:28:44;;;;;;;;;;;;;;;;;;1035845;28;19909;-77
2022/08/12 04:29:14;;;;;;;;;;;;;;;;;;1030854;28;20361;-77
2022/08/12 04:29:45;;;;;;;;;;;;;;;;;;1031701;28;20008;-77
2022/08/12 04:30:15;;;;;;;;;;;;;;;;;;1031865;28;19939;-77
2022/08/12 04:30:45;;;;;;;;;;;;;;;;;;1036149;28;20012;-76
2022/08/12 04:31:16;;;;;;;;;;;;;;;;;;1039235;28;19909;-77
2022/08/12 04:31:46;;;;;;;;;;;;;;;;;;1039452;28;19909;-78
2022/08/12 04:32:16;;;;;;;;;;;;;;;;;;1036814;28;19921;-76
2022/08/12 04:32:47;;;;;;;;;;;;;;;;;;1035281;28;19957;-77
2022/08/12 04:33:18;;;;;;;;;;;;;;;;;;1031950;28;19959;-78
2022/08/12 04:33:48;;;;;;;;;;;;;;;;;;1031383;28;20008;-78
2022/08/12 04:34:18;;;;;;;;;;;;;;;;;;1031919;28;19914;-78
2022/08/12 04:34:48;;;;;;;;;;;;;;;;;;1037645;28;19915;-78
2022/08/12 04:35:19;;;;;;;;;;;;;;;;;;1036247;28;19917;-78
2022/08/12 04:35:49;;;;;;;;;;;;;;;;;;1036304;28;20378;-78
2022/08/12 04:36:19;;;;;;;;;;;;;;;;;;1053523;23;19909;-77
2022/08/12 04:36:50;;;;;;;;;;;;;;;;;;1035117;28;20003;-77
2022/08/12 04:37:20;;;;;;;;;;;;;;;;;;1035061;28;20008;-77
2022/08/12 04:37:52;;;;;;;;;;;;;;;;;;1035769;28;19909;-77
2022/08/12 04:38:22;;;;;;;;;;;;;;;;;;1036353;28;19952;-77
2022/08/12 04:38:52;;;;;;;;;;;;;;;;;;1035894;28;20348;-77
2022/08/12 04:39:23;;;;;;;;;;;;;;;;;;1035880;28;19922;-77
2022/08/12 04:39:53;;;;;;;;;;;;;;;;;;1035224;28;19913;-77
2022/08/12 04:40:23;;;;;;;;;;;;;;;;;;1037081;28;19921;-78
2022/08/12 04:40:54;;;;;;;;;;;;;;;;;;1035929;28;19967;-77
2022/08/12 04:41:26;;;;;;;;;;;;;;;;;;1033800;28;20381;-78
2022/08/12 04:41:58;;;;;;;;;;;;;;;;;;1031689;28;20008;-78
2022/08/12 04:42:29;;;;;;;;;;;;;;;;;;1030571;28;19918;-78
2022/08/12 04:43:02;;;;;;;;;;;;;;;;;;1032323;28;19914;-78
2022/08/12 04:43:32;;;;;;;;;;;;;;;;;;1032168;28;19925;-78
2022/08/12 04:44:02;;;;;;;;;;;;;;;;;;1031565;28;20008;-78
2022/08/12 04:44:33;;;;;;;;;;;;;;;;;;1035303;28;19913;-77
2022/08/12 04:45:03;;;;;;;;;;;;;;;;;;1031622;28;19913;-78
2022/08/12 04:45:36;;;;;;;;;;;;;;;;;;1030997;28;20373;-77
2022/08/12 04:46:06;;;;;;;;;;;;;;;;;;1031986;28;19960;-77
2022/08/12 04:46:39;;;;;;;;;;;;;;;;;;1031293;28;20293;-77
2022/08/12 04:47:09;;;;;;;;;;;;;;;;;;1031472;28;19961;-77
2022/08/12 04:47:40;;;;;;;;;;;;;;;;;;1031556;28;19968;-78
2022/08/12 04:48:10;;;;;;;;;;;;;;;;;;1031805;28;20001;-78
2022/08/12 04:48:40;;;;;;;;;;;;;;;;;;1031962;28;19921;-78
2022/08/12 04:49:10;;;;;;;;;;;;;;;;;;1031784;28;19956;-78
2022/08/12 04:49:41;;;;;;;;;;;;;;;;;;1032258;28;20434;-78
2022/08/12 04:50:11;;;;;;;;;;;;;;;;;;1034687;28;19914;-78
2022/08/12 04:50:42;;;;;;;;;;;;;;;;;;1035671;28;19945;-78
2022/08/12 04:51:13;;;;;;;;;;;;;;;;;;1031655;28;20293;-78
2022/08/12 04:51:43;;;;;;;;;;;;;;;;;;1032422;28;19909;-78
2022/08/12 04:52:13;;;;;;;;;;;;;;;;;;1033524;28;19953;-77
2022/08/12 04:52:43;;;;;;;;;;;;;;;;;;1032442;28;20428;-77
2022/08/12 04:53:14;;;;;;;;;;;;;;;;;;1034085;28;19917;-77
2022/08/12 04:53:45;;;;;;;;;;;;;;;;;;1031264;28;19952;-77
2022/08/12 04:54:16;;;;;;;;;;;;;;;;;;1032107;28;19910;-77
2022/08/12 04:54:46;;;;;;;;;;;;;;;;;;1031679;28;20362;-77
2022/08/12 04:55:16;;;;;;;;;;;;;;;;;;1036380;28;19918;-77